Time;durP1;ratioP1;P1;durP2;ratioP2;P2;SDS_P1;SDS_P2;PMS_P1;PMS_P2;Temp;Humidity;BMP_temperature;BMP_pressure;BME280_temperature;BME280_humidity;BME280_pressure;Samples;Min_cycle;Max_cycle;Signal;HPM_P1;HPM_P2
2022/10/14 00:00:18;;;;;;;17.60;11.48;;;;;;;;;;5062626;28;20197;-68
2022/10/14 00:02:46;;;;;;;20.85;12.55;;;;;;;;;;5062341;28;20205;-68
2022/10/14 00:05:12;;;;;;;14.85;12.20;;;;;;;;;;5062457;28;20496;-68
2022/10/14 00:07:38;;;;;;;20.65;12.77;;;;;;;;;;5062379;28;20201;-68
2022/10/14 00:10:05;;;;;;;19.63;13.40;;;;;;;;;;5062650;28;20208;-68
2022/10/14 00:12:32;;;;;;;20.90;12.77;;;;;;;;;;5062487;28;20203;-68
2022/10/14 00:14:58;;;;;;;18.60;13.52;;;;;;;;;;5062279;28;20385;-68
2022/10/14 00:17:25;;;;;;;20.00;13.00;;;;;;;;;;5062041;28;20575;-67
2022/10/14 00:19:53;;;;;;;17.48;12.90;;;;;;;;;;5062115;28;20531;-67
2022/10/14 00:22:19;;;;;;;15.10;11.75;;;;;;;;;;5061967;28;20208;-67
2022/10/14 00:24:45;;;;;;;15.90;12.70;;;;;;;;;;5062110;28;20212;-68
2022/10/14 00:27:11;;;;;;;16.08;13.05;;;;;;;;;;5061912;28;20193;-68
2022/10/14 00:29:38;;;;;;;17.63;12.30;;;;;;;;;;5062288;28;20213;-68
2022/10/14 00:32:04;;;;;;;18.98;13.40;;;;;;;;;;5061959;28;20201;-67
2022/10/14 00:34:31;;;;;;;17.45;12.25;;;;;;;;;;5061784;28;20197;-67
2022/10/14 00:36:58;;;;;;;20.42;12.38;;;;;;;;;;5061603;28;20463;-67
2022/10/14 00:39:25;;;;;;;19.70;12.60;;;;;;;;;;5061712;28;20197;-68
2022/10/14 00:41:51;;;;;;;15.23;12.20;;;;;;;;;;5061967;28;20207;-67
2022/10/14 00:44:36;;;;;;;15.00;12.80;;;;;;;;;;5061740;28;20271;-67
2022/10/14 00:47:02;;;;;;;20.55;12.73;;;;;;;;;;5061587;28;20200;-68
2022/10/14 00:49:31;;;;;;;18.15;12.57;;;;;;;;;;5061791;28;20207;-68
2022/10/14 00:52:01;;;;;;;18.42;13.35;;;;;;;;;;5062033;28;20200;-68
2022/10/14 00:54:29;;;;;;;21.00;13.77;;;;;;;;;;5061874;28;20579;-68
2022/10/14 00:56:56;;;;;;;16.05;13.75;;;;;;;;;;5061552;28;20220;-68
2022/10/14 00:59:22;;;;;;;15.38;13.55;;;;;;;;;;5061322;28;20207;-68
2022/10/14 01:01:48;;;;;;;16.05;13.43;;;;;;;;;;5061411;28;20203;-68
2022/10/14 01:04:15;;;;;;;21.80;13.57;;;;;;;;;;5061523;28;20201;-68
2022/10/14 01:06:43;;;;;;;16.75;13.25;;;;;;;;;;5061496;28;20223;-68
2022/10/14 01:09:14;;;;;;;16.40;12.32;;;;;;;;;;5061335;28;20204;-68
2022/10/14 01:11:46;;;;;;;14.95;12.35;;;;;;;;;;5061489;28;20197;-68
2022/10/14 01:14:16;;;;;;;13.55;12.15;;;;;;;;;;5061272;28;20211;-68
2022/10/14 01:16:46;;;;;;;12.43;11.13;;;;;;;;;;5061469;28;20244;-68
2022/10/14 01:19:25;;;;;;;19.98;11.43;;;;;;;;;;5061372;28;20391;-68
2022/10/14 01:21:55;;;;;;;13.48;12.07;;;;;;;;;;5061175;28;20204;-67
2022/10/14 01:24:40;;;;;;;16.25;12.50;;;;;;;;;;5061474;28;20197;-67
2022/10/14 01:27:18;;;;;;;13.57;11.20;;;;;;;;;;5061333;28;20231;-68
2022/10/14 01:29:55;;;;;;;11.80;10.57;;;;;;;;;;5061299;28;20444;-67
2022/10/14 01:32:23;;;;;;;13.18;10.68;;;;;;;;;;5061182;28;20204;-67
2022/10/14 01:34:53;;;;;;;14.45;10.55;;;;;;;;;;5061305;28;20505;-67
2022/10/14 01:37:21;;;;;;;13.48;10.50;;;;;;;;;;5060978;28;20555;-67
2022/10/14 01:39:49;;;;;;;11.02;9.93;;;;;;;;;;5061201;28;20197;-67
2022/10/14 01:42:18;;;;;;;12.73;9.73;;;;;;;;;;5061188;28;20388;-67
2022/10/14 01:44:47;;;;;;;15.43;9.52;;;;;;;;;;5061091;28;20205;-67
2022/10/14 01:47:16;;;;;;;12.43;9.32;;;;;;;;;;5061329;28;20200;-68
2022/10/14 01:49:44;;;;;;;15.52;10.10;;;;;;;;;;5061206;28;20203;-68
2022/10/14 01:52:13;;;;;;;10.38;9.18;;;;;;;;;;5061064;28;20205;-68
2022/10/14 01:54:41;;;;;;;11.75;9.27;;;;;;;;;;5061022;28;20204;-68
2022/10/14 01:57:09;;;;;;;17.80;10.18;;;;;;;;;;5060774;28;20225;-68
2022/10/14 01:59:37;;;;;;;16.48;10.90;;;;;;;;;;5061938;28;20390;-68
2022/10/14 02:02:04;;;;;;;12.68;10.85;;;;;;;;;;5064733;28;20227;-68
2022/10/14 02:04:32;;;;;;;13.90;10.40;;;;;;;;;;5064520;28;20429;-68
2022/10/14 02:07:02;;;;;;;15.40;10.15;;;;;;;;;;5064470;28;20201;-68
2022/10/14 02:09:33;;;;;;;11.45;8.05;;;;;;;;;;5064325;28;20193;-68
2022/10/14 02:12:04;;;;;;;12.45;9.90;;;;;;;;;;5064685;28;20205;-68
2022/10/14 02:14:35;;;;;;;17.42;8.93;;;;;;;;;;5064580;28;20205;-68
2022/10/14 02:17:03;;;;;;;9.23;8.30;;;;;;;;;;5064356;28;20385;-68
2022/10/14 02:19:33;;;;;;;16.77;10.07;;;;;;;;;;5064184;28;20215;-68
2022/10/14 02:22:03;;;;;;;16.10;10.15;;;;;;;;;;5064243;28;20208;-67
2022/10/14 02:24:31;;;;;;;14.95;9.95;;;;;;;;;;5064247;28;20197;-68
2022/10/14 02:26:59;;;;;;;10.25;9.10;;;;;;;;;;5064605;28;20194;-68
2022/10/14 02:29:27;;;;;;;14.00;9.80;;;;;;;;;;5064076;28;20526;-68
2022/10/14 02:31:54;;;;;;;10.45;9.30;;;;;;;;;;5064066;28;20204;-68
2022/10/14 02:34:22;;;;;;;12.30;9.57;;;;;;;;;;5064016;28;20204;-68
2022/10/14 02:36:49;;;;;;;15.77;9.60;;;;;;;;;;5063907;28;20228;-68
2022/10/14 02:39:20;;;;;;;10.50;9.40;;;;;;;;;;5063579;28;20200;-68
2022/10/14 02:41:46;;;;;;;15.85;9.02;;;;;;;;;;5064083;28;20197;-68
2022/10/14 02:44:13;;;;;;;17.63;9.40;;;;;;;;;;5063878;28;20208;-68
2022/10/14 02:46:39;;;;;;;9.57;8.32;;;;;;;;;;5063937;28;20205;-67
2022/10/14 02:49:06;;;;;;;10.10;9.02;;;;;;;;;;5063509;28;20500;-68
2022/10/14 02:51:32;;;;;;;9.48;8.57;;;;;;;;;;5063673;28;20207;-68
2022/10/14 02:54:00;;;;;;;11.43;9.30;;;;;;;;;;5063806;28;20518;-68
2022/10/14 02:56:28;;;;;;;9.27;8.43;;;;;;;;;;5063846;28;20416;-67
2022/10/14 02:58:54;;;;;;;10.13;8.70;;;;;;;;;;5063199;28;20307;-67
2022/10/14 03:01:20;;;;;;;9.85;8.75;;;;;;;;;;5063587;28;20200;-67
2022/10/14 03:03:46;;;;;;;12.13;9.95;;;;;;;;;;5063456;28;20203;-68
2022/10/14 03:06:13;;;;;;;12.32;9.40;;;;;;;;;;5063815;28;20197;-68
2022/10/14 03:08:39;;;;;;;12.25;8.45;;;;;;;;;;5063039;28;20200;-67
2022/10/14 03:11:05;;;;;;;9.68;8.88;;;;;;;;;;5062322;28;20198;-68
2022/10/14 03:13:33;;;;;;;9.95;8.38;;;;;;;;;;5063343;28;20211;-68
2022/10/14 03:15:59;;;;;;;10.73;9.10;;;;;;;;;;5063677;28;20535;-67
2022/10/14 03:18:25;;;;;;;11.77;8.70;;;;;;;;;;5063291;28;20227;-67
2022/10/14 03:20:52;;;;;;;9.52;8.55;;;;;;;;;;5063354;28;20204;-67
2022/10/14 03:23:18;;;;;;;14.50;9.27;;;;;;;;;;5063187;28;20201;-67
2022/10/14 03:25:44;;;;;;;14.10;9.70;;;;;;;;;;5063185;28;20204;-67
2022/10/14 03:28:11;;;;;;;13.23;8.93;;;;;;;;;;5062770;28;20500;-67
2022/10/14 03:30:39;;;;;;;10.10;9.00;;;;;;;;;;5062901;28;20205;-67
2022/10/14 03:33:05;;;;;;;11.02;9.80;;;;;;;;;;5062766;28;20261;-67
2022/10/14 03:35:31;;;;;;;14.50;9.38;;;;;;;;;;5062904;28;20207;-67
2022/10/14 03:38:01;;;;;;;13.95;11.10;;;;;;;;;;5062681;28;20221;-67
2022/10/14 03:40:27;;;;;;;15.02;10.07;;;;;;;;;;5062776;28;20406;-67
2022/10/14 03:42:53;;;;;;;11.77;9.75;;;;;;;;;;5062676;28;20205;-67
2022/10/14 03:45:19;;;;;;;13.93;10.63;;;;;;;;;;5062500;28;20201;-67
2022/10/14 03:47:47;;;;;;;12.35;9.65;;;;;;;;;;5062484;28;20193;-67
2022/10/14 03:50:13;;;;;;;13.85;9.43;;;;;;;;;;5062779;28;20205;-67
2022/10/14 03:52:40;;;;;;;11.27;10.02;;;;;;;;;;5062088;28;20209;-67
2022/10/14 03:55:07;;;;;;;13.63;9.98;;;;;;;;;;5062108;28;20232;-67
2022/10/14 03:57:33;;;;;;;16.05;10.02;;;;;;;;;;5061806;28;20466;-67
2022/10/14 03:59:59;;;;;;;13.20;9.35;;;;;;;;;;5062317;28;20197;-67
2022/10/14 04:02:26;;;;;;;16.75;10.45;;;;;;;;;;5062526;28;20204;-67
2022/10/14 04:04:53;;;;;;;13.70;11.40;;;;;;;;;;5062073;28;20198;-67
2022/10/14 04:07:19;;;;;;;16.58;11.07;;;;;;;;;;5061928;28;20208;-67
2022/10/14 04:09:46;;;;;;;15.48;10.77;;;;;;;;;;5062125;28;20387;-67
2022/10/14 04:12:12;;;;;;;15.88;11.30;;;;;;;;;;5061754;28;20550;-68
2022/10/14 04:14:39;;;;;;;13.60;11.20;;;;;;;;;;5061776;28;20197;-68
2022/10/14 04:17:05;;;;;;;13.60;10.82;;;;;;;;;;5061952;28;20275;-68
2022/10/14 04:19:31;;;;;;;12.68;11.07;;;;;;;;;;5061562;28;20268;-67
2022/10/14 04:21:59;;;;;;;20.67;11.50;;;;;;;;;;5061648;28;20219;-67
2022/10/14 04:24:25;;;;;;;16.02;11.07;;;;;;;;;;5061694;28;20219;-67
2022/10/14 04:26:52;;;;;;;11.45;10.30;;;;;;;;;;5061755;28;20511;-67
2022/10/14 04:29:18;;;;;;;11.52;10.38;;;;;;;;;;5061777;28;20203;-67
2022/10/14 04:31:45;;;;;;;16.52;11.63;;;;;;;;;;5061876;28;20197;-67
2022/10/14 04:34:11;;;;;;;15.57;10.98;;;;;;;;;;5062040;28;20504;-67
2022/10/14 04:36:38;;;;;;;14.52;10.50;;;;;;;;;;5061948;28;20477;-67
2022/10/14 04:39:05;;;;;;;15.00;10.77;;;;;;;;;;5061539;28;20562;-67
2022/10/14 04:41:32;;;;;;;11.15;10.05;;;;;;;;;;5062205;28;20318;-67
2022/10/14 04:43:58;;;;;;;12.55;10.68;;;;;;;;;;5061768;28;20491;-67
2022/10/14 04:46:24;;;;;;;12.00;9.35;;;;;;;;;;5061888;28;20215;-67
2022/10/14 04:48:50;;;;;;;13.55;9.80;;;;;;;;;;5061757;28;20216;-66
2022/10/14 04:51:17;;;;;;;11.35;10.18;;;;;;;;;;5061722;28;20196;-67
2022/10/14 04:53:43;;;;;;;11.82;10.02;;;;;;;;;;5061747;28;20491;-67
2022/10/14 04:56:11;;;;;;;10.77;9.38;;;;;;;;;;5061508;28;20205;-67
2022/10/14 04:58:37;;;;;;;11.60;9.60;;;;;;;;;;5061153;28;20233;-67
2022/10/14 05:01:03;;;;;;;11.02;9.50;;;;;;;;;;5061824;28;20387;-67
2022/10/14 05:03:29;;;;;;;10.98;9.80;;;;;;;;;;5061542;28;20197;-67
2022/10/14 05:05:56;;;;;;;11.68;10.38;;;;;;;;;;5061622;28;20519;-67
2022/10/14 05:08:22;;;;;;;13.25;9.60;;;;;;;;;;5061294;28;20201;-67
2022/10/14 05:10:48;;;;;;;16.00;10.23;;;;;;;;;;5061275;28;20203;-67
2022/10/14 05:13:16;;;;;;;15.15;10.25;;;;;;;;;;5061705;28;20267;-67
2022/10/14 05:15:43;;;;;;;15.80;11.20;;;;;;;;;;5061618;28;20197;-67
2022/10/14 05:18:10;;;;;;;13.80;11.30;;;;;;;;;;5061092;28;20219;-67
2022/10/14 05:20:37;;;;;;;13.23;11.05;;;;;;;;;;5061474;28;20201;-69
2022/10/14 05:23:04;;;;;;;13.70;10.82;;;;;;;;;;5061522;28;20428;-69
2022/10/14 05:25:30;;;;;;;16.63;10.20;;;;;;;;;;5061207;28;20205;-69
2022/10/14 05:27:56;;;;;;;14.20;10.73;;;;;;;;;;5061412;28;20205;-69
2022/10/14 05:30:24;;;;;;;15.95;11.43;;;;;;;;;;5061420;28;20205;-69
2022/10/14 05:32:50;;;;;;;13.07;10.18;;;;;;;;;;5061239;28;20438;-69
2022/10/14 05:35:17;;;;;;;16.40;11.18;;;;;;;;;;5063438;28;20197;-69
2022/10/14 05:37:43;;;;;;;16.85;11.30;;;;;;;;;;5064744;28;20206;-69
2022/10/14 05:40:10;;;;;;;17.02;11.35;;;;;;;;;;5064839;28;20383;-69
2022/10/14 05:42:36;;;;;;;16.10;11.10;;;;;;;;;;5065148;28;20196;-69
2022/10/14 05:45:02;;;;;;;23.23;11.40;;;;;;;;;;5065126;28;20523;-69
2022/10/14 05:47:30;;;;;;;12.73;11.43;;;;;;;;;;5065033;28;20205;-69
2022/10/14 05:49:57;;;;;;;11.93;10.57;;;;;;;;;;5065018;28;20203;-69
2022/10/14 05:52:24;;;;;;;17.77;11.07;;;;;;;;;;5065319;28;20371;-68
2022/10/14 05:54:50;;;;;;;18.00;11.63;;;;;;;;;;5065089;28;20353;-68
2022/10/14 05:57:16;;;;;;;17.58;10.63;;;;;;;;;;5064522;28;20231;-69
2022/10/14 05:59:42;;;;;;;14.95;11.55;;;;;;;;;;5064761;28;20217;-69
2022/10/14 06:02:09;;;;;;;17.85;13.00;;;;;;;;;;5064830;28;20197;-69
2022/10/14 06:04:39;;;;;;;16.73;13.02;;;;;;;;;;5064749;28;20391;-69
2022/10/14 06:07:06;;;;;;;14.75;12.48;;;;;;;;;;5064419;28;20254;-69
2022/10/14 06:09:32;;;;;;;14.23;11.60;;;;;;;;;;5064241;28;20207;-69
2022/10/14 06:11:58;;;;;;;18.35;12.05;;;;;;;;;;5064725;28;20526;-68
2022/10/14 06:14:24;;;;;;;13.18;11.68;;;;;;;;;;5064638;28;20204;-69
2022/10/14 06:16:51;;;;;;;16.17;12.25;;;;;;;;;;5064512;28;20204;-69
2022/10/14 06:19:17;;;;;;;15.57;12.80;;;;;;;;;;5064183;28;20239;-69
2022/10/14 06:21:45;;;;;;;18.02;12.10;;;;;;;;;;5064659;28;20204;-69
2022/10/14 06:24:11;;;;;;;16.77;11.85;;;;;;;;;;5064255;28;20197;-69
2022/10/14 06:26:37;;;;;;;14.45;11.57;;;;;;;;;;5064496;28;20373;-69
2022/10/14 06:29:04;;;;;;;16.85;12.68;;;;;;;;;;5053095;28;20205;-57
2022/10/14 06:31:30;;;;;;;18.63;12.30;;;;;;;;;;5057348;28;20215;-57
2022/10/14 06:33:56;;;;;;;20.58;11.77;;;;;;;;;;5058418;28;20216;-56
2022/10/14 06:36:23;;;;;;;19.73;12.50;;;;;;;;;;5058042;28;20284;-57
2022/10/14 06:38:50;;;;;;;13.10;11.80;;;;;;;;;;5058651;28;20225;-57
2022/10/14 06:41:16;;;;;;;17.65;12.73;;;;;;;;;;5058502;28;20546;-56
2022/10/14 06:43:43;;;;;;;22.80;12.48;;;;;;;;;;5058616;28;20212;-57
2022/10/14 06:46:09;;;;;;;15.05;12.15;;;;;;;;;;5057974;28;20215;-57
2022/10/14 06:48:36;;;;;;;15.82;12.27;;;;;;;;;;5054142;28;20225;-56
2022/10/14 06:51:02;;;;;;;17.80;11.52;;;;;;;;;;5050005;28;20394;-54
2022/10/14 06:53:29;;;;;;;17.23;11.70;;;;;;;;;;5056131;28;20227;-57
2022/10/14 06:56:00;;;;;;;20.08;11.55;;;;;;;;;;5057065;28;20212;-55
2022/10/14 06:58:27;;;;;;;17.77;12.40;;;;;;;;;;5052178;28;20229;-56
2022/10/14 07:00:53;;;;;;;17.67;13.10;;;;;;;;;;5054995;28;20213;-55
2022/10/14 07:03:19;;;;;;;15.38;11.73;;;;;;;;;;5055675;28;20547;-56
2022/10/14 07:05:46;;;;;;;13.48;12.25;;;;;;;;;;5056965;28;20205;-56
2022/10/14 07:08:12;;;;;;;13.95;11.77;;;;;;;;;;5056497;28;20587;-55
2022/10/14 07:10:42;;;;;;;14.43;11.93;;;;;;;;;;5056591;28;20297;-55
2022/10/14 07:13:09;;;;;;;15.32;11.35;;;;;;;;;;5055621;28;20449;-56
2022/10/14 07:15:37;;;;;;;14.07;11.25;;;;;;;;;;5056259;28;20213;-57
2022/10/14 07:18:04;;;;;;;13.80;11.85;;;;;;;;;;5054785;28;20212;-56
2022/10/14 07:20:30;;;;;;;15.93;11.55;;;;;;;;;;5054911;28;20209;-56
2022/10/14 07:22:56;;;;;;;19.17;12.00;;;;;;;;;;5055333;28;20219;-56
2022/10/14 07:25:23;;;;;;;13.77;11.43;;;;;;;;;;5054847;28;20213;-55
2022/10/14 07:27:50;;;;;;;19.15;12.27;;;;;;;;;;5055101;28;20546;-56
2022/10/14 07:30:18;;;;;;;14.70;11.82;;;;;;;;;;5054733;28;20223;-56
2022/10/14 07:32:44;;;;;;;18.60;12.52;;;;;;;;;;5054905;28;20220;-55
2022/10/14 07:35:10;;;;;;;17.95;13.45;;;;;;;;;;5055450;28;20216;-56
2022/10/14 07:37:37;;;;;;;17.05;13.30;;;;;;;;;;5054625;28;20201;-55
2022/10/14 07:40:03;;;;;;;21.35;14.45;;;;;;;;;;5055690;28;20240;-57
2022/10/14 07:42:29;;;;;;;20.05;13.23;;;;;;;;;;5055624;28;20217;-56
2022/10/14 07:44:56;;;;;;;18.33;13.52;;;;;;;;;;5054525;28;20220;-55
2022/10/14 07:47:24;;;;;;;20.30;13.63;;;;;;;;;;5054996;28;20543;-55
2022/10/14 07:49:50;;;;;;;20.00;12.82;;;;;;;;;;5054780;28;20216;-54
2022/10/14 07:52:18;;;;;;;15.38;12.60;;;;;;;;;;5054877;28;20220;-55
2022/10/14 07:54:44;;;;;;;16.45;11.90;;;;;;;;;;5054962;28;20213;-57
2022/10/14 07:57:11;;;;;;;17.10;12.45;;;;;;;;;;5054279;28;20546;-55
2022/10/14 07:59:37;;;;;;;16.45;10.98;;;;;;;;;;5054782;28;20342;-56
2022/10/14 08:02:04;;;;;;;20.77;12.15;;;;;;;;;;5056382;28;20217;-56
2022/10/14 08:04:32;;;;;;;13.32;10.52;;;;;;;;;;5055423;28;20212;-56
2022/10/14 08:06:58;;;;;;;12.20;10.95;;;;;;;;;;5055080;28;20224;-55
2022/10/14 08:09:24;;;;;;;12.07;10.25;;;;;;;;;;5055035;28;20813;-55
2022/10/14 08:11:51;;;;;;;14.57;9.32;;;;;;;;;;5055887;28;20209;-55
2022/10/14 08:14:17;;;;;;;10.20;9.15;;;;;;;;;;5054968;28;20213;-56
2022/10/14 08:16:43;;;;;;;14.00;9.48;;;;;;;;;;5056079;28;20304;-56
2022/10/14 08:19:10;;;;;;;16.55;9.50;;;;;;;;;;5053331;28;20239;-56
2022/10/14 08:21:38;;;;;;;12.68;8.98;;;;;;;;;;5054642;28;20216;-56
2022/10/14 08:24:04;;;;;;;13.25;9.57;;;;;;;;;;5054017;28;20616;-56
2022/10/14 08:26:32;;;;;;;14.82;9.48;;;;;;;;;;5054122;28;20219;-56
2022/10/14 08:29:00;;;;;;;11.13;9.43;;;;;;;;;;5054051;28;20251;-56
2022/10/14 08:31:26;;;;;;;10.68;8.93;;;;;;;;;;5054363;28;20212;-56
2022/10/14 08:33:52;;;;;;;9.75;8.50;;;;;;;;;;5053909;28;20216;-55
2022/10/14 08:36:20;;;;;;;12.27;9.75;;;;;;;;;;5054894;28;20216;-56
2022/10/14 08:38:47;;;;;;;12.38;9.57;;;;;;;;;;5054717;28;20236;-54
2022/10/14 08:41:32;;;;;;;13.50;10.68;;;;;;;;;;5054969;28;20969;-55
2022/10/14 08:44:05;;;;;;;14.68;10.23;;;;;;;;;;5054091;28;20208;-55
2022/10/14 08:46:36;;;;;;;11.85;9.98;;;;;;;;;;5054211;28;20235;-55
2022/10/14 08:49:06;;;;;;;13.32;10.35;;;;;;;;;;5053776;28;20215;-55
2022/10/14 08:51:33;;;;;;;15.93;10.50;;;;;;;;;;5054087;28;20220;-55
2022/10/14 08:54:05;;;;;;;16.02;10.73;;;;;;;;;;5053669;28;20213;-55
2022/10/14 08:56:32;;;;;;;18.42;11.30;;;;;;;;;;5050609;28;20213;-54
2022/10/14 08:59:00;;;;;;;13.85;10.73;;;;;;;;;;5053633;28;20233;-57
2022/10/14 09:01:28;;;;;;;14.65;11.15;;;;;;;;;;5054261;28;20227;-56
2022/10/14 09:03:56;;;;;;;16.63;11.32;;;;;;;;;;5054124;28;20595;-56
2022/10/14 09:06:25;;;;;;;16.20;11.35;;;;;;;;;;5053906;28;20208;-57
2022/10/14 09:08:53;;;;;;;16.60;10.93;;;;;;;;;;5054465;28;20293;-57
2022/10/14 09:11:22;;;;;;;16.52;10.98;;;;;;;;;;5057866;28;20216;-58
2022/10/14 09:13:49;;;;;;;19.27;11.00;;;;;;;;;;5058768;28;20208;-58
2022/10/14 09:16:18;;;;;;;17.17;9.82;;;;;;;;;;5058444;28;20213;-58
2022/10/14 09:18:46;;;;;;;14.70;9.97;;;;;;;;;;5058002;28;20220;-55
2022/10/14 09:21:30;;;;;;;17.17;10.63;;;;;;;;;;5055162;28;20532;-55
2022/10/14 09:23:58;;;;;;;16.98;10.30;;;;;;;;;;5058327;28;20215;-57
2022/10/14 09:26:28;;;;;;;13.63;10.13;;;;;;;;;;5057043;28;20209;-57
2022/10/14 09:28:54;;;;;;;22.65;11.65;;;;;;;;;;5055131;28;20405;-55
2022/10/14 09:31:21;;;;;;;13.38;10.77;;;;;;;;;;5057714;28;20283;-55
2022/10/14 09:33:47;;;;;;;14.65;10.05;;;;;;;;;;5057752;28;20209;-55
2022/10/14 09:36:16;;;;;;;18.10;11.73;;;;;;;;;;5058203;28;20518;-56
2022/10/14 09:38:42;;;;;;;13.95;10.80;;;;;;;;;;5057995;28;20214;-55
2022/10/14 09:41:10;;;;;;;13.93;10.98;;;;;;;;;;5056959;28;20540;-56
2022/10/14 09:43:38;;;;;;;13.63;10.75;;;;;;;;;;5057838;28;20233;-57
2022/10/14 09:46:06;;;;;;;33.45;21.80;;;;;;;;;;5058482;28;20237;-55
2022/10/14 09:48:36;;;;;;;18.15;11.48;;;;;;;;;;5057454;28;20659;-56
2022/10/14 09:51:04;;;;;;;16.55;10.32;;;;;;;;;;5057215;28;20197;-56
2022/10/14 09:53:32;;;;;;;18.15;11.02;;;;;;;;;;5057656;28;20224;-56
2022/10/14 09:55:59;;;;;;;14.50;9.68;;;;;;;;;;5057678;28;20460;-56
2022/10/14 09:58:33;;;;;;;16.67;10.75;;;;;;;;;;5057339;28;20224;-55
2022/10/14 10:01:01;;;;;;;18.20;10.20;;;;;;;;;;5057376;28;20236;-57
2022/10/14 10:03:28;;;;;;;12.85;9.38;;;;;;;;;;5058423;28;20232;-57
2022/10/14 10:05:59;;;;;;;13.43;8.90;;;;;;;;;;5058621;28;20279;-57
2022/10/14 10:08:25;;;;;;;16.00;8.82;;;;;;;;;;5057318;28;20455;-57
2022/10/14 10:11:00;;;;;;;10.52;9.38;;;;;;;;;;5057168;28;20275;-57
2022/10/14 10:13:31;;;;;;;12.68;8.50;;;;;;;;;;5057902;28;20594;-57
2022/10/14 10:15:58;;;;;;;10.02;8.02;;;;;;;;;;5038505;28;20208;-57
2022/10/14 10:18:26;;;;;;;13.18;8.48;;;;;;;;;;5044060;28;20255;-58
2022/10/14 10:21:01;;;;;;;11.23;7.70;;;;;;;;;;5056765;28;20556;-57
2022/10/14 10:39:12;;;;;;;7.22;6.30;;;;;;;;;;5132969;27;20558;-56
2022/10/14 10:41:46;;;;;;;8.70;5.82;;;;;;;;;;5132343;27;20208;-58
2022/10/14 10:44:31;;;;;;;7.70;6.70;;;;;;;;;;5133100;27;20513;-57
2022/10/14 10:47:03;;;;;;;11.05;6.90;;;;;;;;;;5132778;27;20599;-57
2022/10/14 10:49:37;;;;;;;6.30;5.72;;;;;;;;;;5131761;27;20496;-58
2022/10/14 10:52:07;;;;;;;7.45;6.53;;;;;;;;;;5133017;27;20209;-56
2022/10/14 10:54:39;;;;;;;7.38;6.68;;;;;;;;;;5133493;27;20210;-58
2022/10/14 10:57:09;;;;;;;7.25;5.70;;;;;;;;;;5133278;27;20207;-57
2022/10/14 10:59:40;;;;;;;7.03;6.43;;;;;;;;;;5131990;27;20217;-57
2022/10/14 11:02:21;;;;;;;7.80;5.72;;;;;;;;;;5132280;27;20509;-57
2022/10/14 11:04:50;;;;;;;13.85;6.30;;;;;;;;;;5132680;27;20210;-57
2022/10/14 11:12:59;;;;;;;12.35;6.57;;;;;;;;;;5131952;28;20228;-57
2022/10/14 11:15:29;;;;;;;9.05;6.40;;;;;;;;;;5132471;27;20210;-57
2022/10/14 11:18:00;;;;;;;10.07;6.28;;;;;;;;;;5131495;27;20218;-57
2022/10/14 11:20:28;;;;;;;7.80;5.38;;;;;;;;;;5132246;27;20217;-58
2022/10/14 11:23:05;;;;;;;10.43;6.10;;;;;;;;;;5131399;27;20221;-57
2022/10/14 11:25:39;;;;;;;10.10;5.80;;;;;;;;;;5129896;28;20238;-57
2022/10/14 11:28:09;;;;;;;7.60;5.75;;;;;;;;;;5131403;27;20252;-56
2022/10/14 11:30:42;;;;;;;6.43;5.15;;;;;;;;;;5131500;27;20456;-56
2022/10/14 11:33:16;;;;;;;6.25;5.63;;;;;;;;;;5132478;27;20213;-56
2022/10/14 11:35:49;;;;;;;6.90;5.93;;;;;;;;;;5132095;27;20211;-57
2022/10/14 11:38:23;;;;;;;6.65;5.88;;;;;;;;;;5128197;27;20218;-57
2022/10/14 11:40:56;;;;;;;9.77;6.22;;;;;;;;;;5118854;28;20421;-56
2022/10/14 11:43:26;;;;;;;11.73;5.97;;;;;;;;;;5118061;28;20583;-57
2022/10/14 11:45:55;;;;;;;10.55;6.88;;;;;;;;;;5118086;27;20300;-56
2022/10/14 11:48:25;;;;;;;12.57;6.30;;;;;;;;;;5117099;28;20424;-56
2022/10/14 11:50:55;;;;;;;6.85;6.25;;;;;;;;;;5114798;28;20214;-55
2022/10/14 11:53:24;;;;;;;5.25;4.88;;;;;;;;;;5103435;28;20225;-55
2022/10/14 11:55:57;;;;;;;3.78;3.47;;;;;;;;;;5114903;28;20218;-58
2022/10/14 11:58:26;;;;;;;6.03;4.20;;;;;;;;;;5115113;28;20207;-55
2022/10/14 12:00:55;;;;;;;5.20;3.83;;;;;;;;;;5115297;28;20218;-57
2022/10/14 12:03:27;;;;;;;4.22;3.88;;;;;;;;;;5115205;28;20211;-57
2022/10/14 12:05:58;;;;;;;4.85;3.40;;;;;;;;;;5114132;28;20230;-58
2022/10/14 12:08:29;;;;;;;3.90;3.08;;;;;;;;;;5117067;28;20234;-57
2022/10/14 12:11:00;;;;;;;3.55;3.20;;;;;;;;;;5117377;28;20420;-58
2022/10/14 12:13:30;;;;;;;4.72;2.90;;;;;;;;;;5118078;28;20215;-57
2022/10/14 12:15:56;;;;;;;4.50;3.30;;;;;;;;;;5117972;28;20214;-57
2022/10/14 12:18:22;;;;;;;3.78;3.08;;;;;;;;;;5116787;27;20430;-58
2022/10/14 12:20:51;;;;;;;4.85;3.30;;;;;;;;;;5118265;28;20221;-58
2022/10/14 12:23:22;;;;;;;3.40;3.10;;;;;;;;;;5118163;28;20677;-57
2022/10/14 12:25:51;;;;;;;4.40;3.55;;;;;;;;;;5117703;28;20521;-58
2022/10/14 12:28:19;;;;;;;3.00;2.53;;;;;;;;;;5119577;28;20556;-58
2022/10/14 12:30:46;;;;;;;3.10;2.85;;;;;;;;;;5124393;28;20196;-58
2022/10/14 12:33:13;;;;;;;4.95;2.50;;;;;;;;;;5124123;27;20230;-58
2022/10/14 12:35:47;;;;;;;3.42;2.30;;;;;;;;;;5123720;28;20359;-57
2022/10/14 12:38:13;;;;;;;3.50;3.20;;;;;;;;;;5122420;28;20214;-58
2022/10/14 12:40:40;;;;;;;5.55;3.60;;;;;;;;;;5123885;28;20427;-58
2022/10/14 12:43:17;;;;;;;7.72;3.08;;;;;;;;;;5123833;28;20196;-58
2022/10/14 12:46:02;;;;;;;3.97;2.28;;;;;;;;;;5123837;28;20240;-58
2022/10/14 12:48:30;;;;;;;5.03;2.80;;;;;;;;;;5123295;28;20221;-58
2022/10/14 12:51:05;;;;;;;6.47;3.00;;;;;;;;;;5122497;28;20363;-58
2022/10/14 12:53:32;;;;;;;4.25;2.92;;;;;;;;;;5123759;28;20282;-58
2022/10/14 12:55:59;;;;;;;6.75;2.58;;;;;;;;;;5123457;28;20504;-58
2022/10/14 12:58:27;;;;;;;5.18;2.58;;;;;;;;;;5123396;28;20207;-56
2022/10/14 13:00:55;;;;;;;3.08;2.50;;;;;;;;;;5123390;28;20369;-57
2022/10/14 13:03:25;;;;;;;2.60;2.40;;;;;;;;;;5123074;28;20201;-58
2022/10/14 13:05:51;;;;;;;5.05;3.40;;;;;;;;;;5123577;28;20278;-58
2022/10/14 13:08:26;;;;;;;6.47;2.60;;;;;;;;;;5122937;28;20215;-58
2022/10/14 13:11:07;;;;;;;3.97;3.17;;;;;;;;;;5123110;28;20441;-57
2022/10/14 13:13:48;;;;;;;5.47;2.78;;;;;;;;;;5123531;28;20286;-58
2022/10/14 13:16:29;;;;;;;3.85;3.40;;;;;;;;;;5123187;28;20203;-58
2022/10/14 13:18:57;;;;;;;3.97;2.17;;;;;;;;;;5122691;28;20199;-57
2022/10/14 13:21:29;;;;;;;8.00;3.20;;;;;;;;;;5123276;28;20195;-58
2022/10/14 13:23:57;;;;;;;6.47;3.05;;;;;;;;;;5123223;28;20199;-58
2022/10/14 13:26:27;;;;;;;7.07;2.53;;;;;;;;;;5123278;28;20209;-58
2022/10/14 13:29:01;;;;;;;11.93;4.78;;;;;;;;;;5122878;28;20219;-57
2022/10/14 13:31:33;;;;;;;9.95;4.00;;;;;;;;;;5122614;28;20517;-58
2022/10/14 13:34:10;;;;;;;11.23;6.82;;;;;;;;;;5122747;28;20205;-57
2022/10/14 13:36:39;;;;;;;7.18;4.47;;;;;;;;;;5122646;28;20266;-57
2022/10/14 13:39:05;;;;;;;5.32;2.50;;;;;;;;;;5122569;28;20198;-58
2022/10/14 13:41:33;;;;;;;2.70;2.50;;;;;;;;;;5122805;28;20350;-57
2022/10/14 13:44:00;;;;;;;2.85;2.75;;;;;;;;;;5122440;28;20222;-58
2022/10/14 13:46:29;;;;;;;4.20;3.28;;;;;;;;;;5122535;28;20281;-57
2022/10/14 13:48:56;;;;;;;3.10;2.65;;;;;;;;;;5122067;28;20234;-56
2022/10/14 13:51:26;;;;;;;3.92;3.60;;;;;;;;;;5122247;28;20426;-57
2022/10/14 13:53:53;;;;;;;7.13;6.40;;;;;;;;;;5122491;28;20201;-57
2022/10/14 13:56:21;;;;;;;6.30;4.68;;;;;;;;;;5122298;28;20203;-58
2022/10/14 13:58:47;;;;;;;8.05;4.47;;;;;;;;;;5122180;28;20214;-58
2022/10/14 14:01:14;;;;;;;2.42;1.75;;;;;;;;;;5122160;28;20225;-58
2022/10/14 14:03:43;;;;;;;2.97;1.42;;;;;;;;;;5122227;28;20195;-58
2022/10/14 14:06:10;;;;;;;5.88;1.58;;;;;;;;;;5122180;28;20205;-58
2022/10/14 14:08:42;;;;;;;1.58;1.27;;;;;;;;;;5121983;28;20485;-59
2022/10/14 14:11:09;;;;;;;5.82;1.27;;;;;;;;;;5117919;28;20194;-58
2022/10/14 14:13:43;;;;;;;6.53;1.30;;;;;;;;;;5103238;28;20203;-57
2022/10/14 14:16:18;;;;;;;1.15;1.08;;;;;;;;;;5114617;28;20493;-57
2022/10/14 14:18:46;;;;;;;2.10;1.33;;;;;;;;;;5108752;28;20218;-56
2022/10/14 14:21:13;;;;;;;1.10;1.10;;;;;;;;;;5119445;28;20218;-56
2022/10/14 14:23:49;;;;;;;1.50;1.25;;;;;;;;;;5119397;28;20207;-56
2022/10/14 14:26:16;;;;;;;1.17;1.13;;;;;;;;;;5117152;28;20209;-56
2022/10/14 14:28:45;;;;;;;3.60;1.05;;;;;;;;;;5116424;28;20226;-56
2022/10/14 14:31:13;;;;;;;2.45;1.63;;;;;;;;;;5115890;28;20519;-56
2022/10/14 14:33:41;;;;;;;1.65;1.30;;;;;;;;;;5116754;28;20213;-55
2022/10/14 14:36:12;;;;;;;1.42;1.10;;;;;;;;;;5117035;28;20526;-58
2022/10/14 14:38:44;;;;;;;6.80;1.13;;;;;;;;;;5116087;28;20211;-58
2022/10/14 14:41:17;;;;;;;1.10;1.10;;;;;;;;;;5116462;28;20265;-57
2022/10/14 14:43:44;;;;;;;1.40;1.20;;;;;;;;;;5116773;28;20206;-58
2022/10/14 14:46:15;;;;;;;1.08;1.05;;;;;;;;;;5116837;28;20207;-57
2022/10/14 14:48:42;;;;;;;2.22;1.98;;;;;;;;;;5116530;28;20227;-56
2022/10/14 14:51:09;;;;;;;1.85;1.75;;;;;;;;;;5119826;28;20225;-58
2022/10/14 14:53:37;;;;;;;1.85;1.20;;;;;;;;;;5121428;28;20240;-58